Station: Tidbinbilla  

  Atmospheric Gas Attenuation - ITU Rec 676-11   ----------------- dB/100km -----------------
Date Time Temp RH % AH g/m3 Dew Point Wind Direction Speed kph Gust kph Barometer mB Rainfall Since 9am 24GHz 47GHz 76GHz 122GHz 134GHz 241GHz
02/09 19:30 13.9 68 8.15 8.1 13 17 1013.1 0 18.6 25.1 38.0 99.5 92.4 317.4
02/09 19:00 13.8 68 8.1 8 13 19 1013.1 0 18.5 25.1 37.8 99.1 91.8 315.5
02/09 18:30 14.1 65 7.89 7.7 19 24 1013.1 0 18.1 24.7 36.8 96.6 88.8 304.9
02/09 18:00 14.5 63 7.84 7.5 15 19 1013.1 0 17.9 24.5 36.5 95.6 87.7 301.1
02/09 17:30 15 60 7.69 7.3 7 15 1013.1 0 17.6 24.1 35.7 93.4 85.3 292.6
02/09 17:00 15.4 57 7.49 7 15 22 1013.1 0 17.2 23.7 34.7 90.9 82.3 282.4
02/09 16:30 16.1 54 7.4 6.8 17 24 1013.1 0 16.9 23.4 34.1 89.3 80.5 276.1
02/09 16:00 17.1 50 7.28 6.8 20 30 1013.1 0 16.6 23.0 33.2 87.0 78.0 267.6
02/09 15:30 18.1 48 7.42 7 15 22 1013.1 0 16.9 22.9 33.3 87.3 78.7 270.2
02/09 15:00 18.3 47 7.35 7 17 28 1013.1 0 16.7 22.8 33.0 86.4 77.7 266.6
02/09 14:30 18.9 46 7.45 7.1 24 32 1013.1 0 16.9 22.8 33.1 86.7 78.3 268.7
02/09 14:00 19.6 44 7.43 7.1 19 26 1013.1 0 16.9 22.6 32.8 85.8 77.4 265.6
02/09 13:30 18.3 48 7.5 7.1 19 30 1013.1 0 17.1 23.0 33.5 87.8 79.5 272.8
02/09 13:00 17.2 49 7.18 6.5 17 22 1013.1 0 16.4 22.8 32.8 85.9 76.8 263.1
02/09 12:30 17.1 50 7.28 6.7 20 28 1013.1 0 16.6 23.0 33.2 87.0 78.0 267.6
02/09 12:00 17.9 49 7.48 7 15 20 1013.1 0 17.0 23.0 33.6 88.1 79.7 273.3
02/09 11:30 16.2 54 7.45 6.9 20 32 1013.1 0 17.0 23.4 34.2 89.6 81.0 277.9
02/09 11:00 16.1 54 7.4 6.8 17 26 1013.1 0 16.9 23.4 34.1 89.3 80.5 276.1
02/09 10:30 15.2 57 7.4 6.8 15 19 1013.1 0 17.0 23.6 34.5 90.3 81.4 279.2
02/09 10:00 14.7 59 7.43 6.9 15 24 1013.1 0 17.1 23.8 34.8 91.1 82.3 282.3
02/09 09:30 15.9 53 7.18 6.4 17 24 1013.1 0 16.5 23.1 33.4 87.3 78.0 267.4
02/09 09:00 15.5 54 7.14 6.3 11 19 1013.1 0 16.4 23.2 33.4 87.3 77.9 267.0
02/09 08:30 14.3 66 8.11 8 7 13 1013.1 0 18.5 25.0 37.6 98.6 91.4 314.0
02/09 08:00 13.7 61 7.22 6.3 17 26 1013.1 0 16.7 23.7 34.4 90.1 80.7 276.6
02/09 07:30 12.9 64 7.21 6.4 11 15 1013.1 0 16.7 23.9 34.7 90.9 81.4 278.9
02/09 07:00 12 66 7.03 5.8 13 15 1013.1 0 16.3 23.9 34.4 90.1 80.1 274.0
02/09 06:30 10.6 73 7.13 5.9 11 17 1013.1 0 16.6 24.4 35.4 92.8 82.8 283.5
02/09 05:30 9.9 78 7.28 6.3 9 13 1013.1 0 16.9 24.9 36.4 95.2 85.5 293.0
02/09 05:00 11.3 70 7.14 6.1 6 11 1013.1 0 16.6 24.3 35.2 92.1 82.2 281.4
02/09 04:30 11.8 68 7.16 6.1 7 15 1013.1 0 16.6 24.1 35.0 91.7 81.9 280.6
02/09 04:00 11.7 66 6.9 5.7 11 15 1013.1 0 16.1 23.8 34.1 89.1 78.7 269.2
02/09 03:00 11.8 66 6.95 5.8 15 22 1013.1 0 16.2 23.8 34.2 89.5 79.2 271.1
02/09 02:30 12.3 64 6.95 5.7 26 32 1013.1 0 16.1 23.7 34.0 89.0 78.7 269.4
02/09 02:00 12.4 63 6.88 5.6 19 24 1013.1 0 16.0 23.6 33.7 88.1 77.8 266.0
02/09 01:30 12.7 63 7.01 5.8 20 28 1013.1 0 16.2 23.7 34.1 89.1 79.1 270.7
02/09 01:00 12.9 59 6.65 5.2 11 19 1013.1 0 15.5 23.1 32.6 85.3 74.4 254.3
02/09 00:00 12.5 66 7.26 6.3 11 17 1013.1 0 16.8 24.1 35.1 91.9 82.5 282.6
01/09 23:30 12.7 63 7.01 6 7 13 1013.1 0 16.2 23.7 34.1 89.1 79.1 270.7
01/09 23:00 12.3 66 7.17 6.1 7 17 1013.1 0 16.6 24.0 34.9 91.2 81.5 279.2
01/09 22:30 12.7 64 7.13 6.2 7 15 1013.1 0 16.5 23.9 34.5 90.4 80.6 276.1
01/09 22:00 13.3 64 7.39 6.7 17 26 1013.1 0 17.0 24.1 35.3 92.3 83.3 285.5
01/09 21:30 13.1 65 7.42 6.7 9 15 1013.1 0 17.1 24.2 35.5 92.9 83.9 287.6
01/09 21:00 12.8 67 7.51 6.9 9 15 1013.1 0 17.3 24.4 36.0 94.2 85.4 292.7
01/09 20:30 13.2 65 7.46 6.8 13 32 1013.1 0 17.2 24.2 35.6 93.2 84.3 289.0
01/09 20:00 13.4 64 7.44 6.8 13 24 1013.1 0 17.1 24.2 35.4 92.7 83.8 287.4
01/09 19:00 13.5 64 7.49 6.8 17 22 1013.1 0 17.2 24.2 35.6 93.1 84.3 289.2
01/09 18:30 13.5 62 7.25 6.5 20 32 1013.1 0 16.7 23.8 34.6 90.7 81.3 278.6
01/09 18:00 13.9 54 6.47 4.8 15 22 1013.1 0 15.0 22.6 31.5 82.4 71.3 243.4
01/09 17:30 14.4 50 6.18 4.2 13 20 1013.1 0 14.4 22.0 30.3 79.1 67.3 229.7
01/09 17:00 16.3 44 6.1 4 15 20 1013.1 0 14.2 21.4 29.3 76.5 64.8 221.1
01/09 16:30 15.6 45 5.98 3.9 17 24 1013.1 0 13.9 21.4 29.2 76.0 64.0 218.1
01/09 16:00 18.1 41 6.33 4.8 9 17 1013.1 0 14.6 21.3 29.5 76.9 66.0 225.5
01/09 15:30 18.3 38 5.94 3.8 15 24 1013.1 0 13.8 20.8 28.1 73.2 61.4 209.4
01/09 15:00 18.5 38 6.01 4 13 19 1013.1 0 13.9 20.8 28.2 73.6 62.1 211.7
01/09 14:30 18.6 36 5.73 3.5 17 24 1013.1 0 13.3 20.4 27.3 71.0 58.9 200.4
01/09 14:00 17.7 36 5.43 2.6 20 26 1013.1 0 12.7 20.2 26.6 69.1 56.2 190.9
01/09 13:30 17.2 36 5.27 2.3 30 37 1013.1 0 12.4 20.1 26.2 68.1 54.7 185.8
01/09 13:00 17 37 5.35 2.5 32 37 1013.1 0 12.6 20.2 26.5 69.0 55.8 189.4
01/09 12:30 18.5 38 6.01 4.1 17 24 1013.1 0 13.9 20.8 28.2 73.6 62.1 211.7
01/09 11:30 17.9 43 6.56 5.1 13 24 1013.1 0 15.1 21.7 30.4 79.3 68.8 235.3
01/09 11:00 16.6 44 6.22 4.5 13 22 1013.1 0 14.4 21.5 29.6 77.3 66.0 225.2
01/09 10:30 16.1 46 6.31 4.7 17 24 1013.1 0 14.6 21.8 30.1 78.7 67.4 230.3
01/09 10:00 15.9 47 6.36 4.7 17 33 1013.1 0 14.7 21.9 30.4 79.3 68.2 232.9
01/09 09:30 15.6 49 6.52 5 15 19 1013.1 0 15.1 22.2 31.1 81.2 70.4 240.4
01/09 09:00 15.6 49 6.52 4.9 7 13 1013.1 0 15.1 22.2 31.1 81.2 70.4 240.4
01/09 08:30 15.2 50 6.49 4.9 7 30 1013.1 0 15.0 22.3 31.1 81.3 70.3 240.4
01/09 08:00 14.4 46 5.69 3.1 4 9 1013.1 0 13.4 21.3 28.5 74.4 61.5 209.3
01/09 07:30 13.3 51 5.89 3.4 9 22 1013.1 0 13.8 21.8 29.7 77.3 64.8 220.6
01/09 07:00 11.5 57 5.89 3.4 7 11 1013.1 0 13.9 22.3 30.3 79.1 66.3 225.6
01/09 06:30 11 58 5.81 3.2 4 7 1013.1 0 13.8 22.3 30.2 78.8 65.7 223.5
01/09 06:00 10.5 59 5.72 2.8 6 11 1013.1 0 13.6 22.3 30.1 78.4 65.0 221.0
01/09 05:30 11 52 5.21 1.7 6 7 1013.1 0 12.5 21.4 28.0 72.9 58.4 197.9
01/09 05:00 10.8 54 5.34 1.9 6 9 1013.1 0 12.8 21.6 28.5 74.3 60.1 203.9
01/09 04:30 10.8 58 5.73 3 2 6 1013.1 0 13.6 22.2 30.0 78.2 64.9 220.6
01/09 04:00 11.9 53 5.61 2.8 4 7 1013.1 0 13.3 21.8 29.1 76.0 62.5 212.5
01/09 03:30 12.1 51 5.47 2.4 2 4 1013.1 0 13.0 21.5 28.6 74.4 60.7 206.1
01/09 03:00 12.1 50 5.36 2.1 2 6 1013.1 0 12.8 21.3 28.2 73.3 59.4 201.5
01/09 02:30 12.5 47 5.17 1.5 6 7 1013.1 0 12.3 21.0 27.3 71.2 56.9 192.6
01/09 02:00 11.8 46 4.84 0.7 13 15 1013.1 0 11.7 20.7 26.4 68.6 53.5 180.6
01/09 01:30 11.7 44 4.6 -0.2 7 13 1013.1 0 11.2 20.3 25.6 66.5 50.7 171.0
01/09 01:00 11.5 40 4.13 -1.6 2 4 1013.1 0 10.2 19.7 24.0 62.3 45.5 152.5
01/09 00:30 11.7 41 4.29 -1 7 9 1013.1 0 10.5 19.9 24.5 63.6 47.2 158.5
01/09 00:00 12.8 39 4.37 -0.6 7 11 1013.1 0 10.6 19.8 24.5 63.5 47.4 159.6
31/08 23:30 13.2 36 4.13 -1.5 17 19 1013.1 0 10.1 19.4 23.5 61.0 44.5 149.3
31/08 23:00 12.7 37 4.12 -1.7 15 17 1013.1 0 10.1 19.5 23.7 61.3 44.7 149.9
31/08 22:30 12.8 39 4.37 -0.7 6 11 1013.1 0 10.6 19.8 24.5 63.5 47.4 159.6
31/08 22:00 13 38 4.31 -0.9 11 13 1013.1 0 10.5 19.7 24.2 62.8 46.7 156.8
31/08 21:30 12.9 41 4.62 -0.1 9 11 1013.1 0 11.2 20.1 25.3 65.7 50.2 169.3
31/08 21:00 12.7 48 5.34 2.1 4 6 1013.1 0 12.7 21.2 27.9 72.6 58.7 199.2
31/08 20:00 13.3 51 5.89 3.4 7 9 1013.1 0 13.8 21.8 29.7 77.3 64.8 220.6
31/08 19:30 13.4 50 5.81 3.3 6 7 1013.1 0 13.7 21.7 29.3 76.5 63.7 216.9
31/08 19:00 13.6 50 5.88 3.5 7 9 1013.1 0 13.8 21.8 29.5 77.0 64.4 219.3
31/08 18:30 14.3 51 6.27 4.5 2 4 1013.1 0 14.6 22.2 30.7 80.1 68.5 233.8
31/08 18:00 14.4 52 6.43 4.7 6 7 1013.1 0 14.9 22.4 31.2 81.5 70.3 240.2
31/08 17:30 15 48 6.15 4.3 6 7 1013.1 0 14.3 21.8 30.0 78.2 66.5 226.7
31/08 17:00 16.7 43 6.11 4.2 11 15 1013.1 0 14.2 21.4 29.2 76.2 64.6 220.4
31/08 16:30 17.8 41 6.22 4.6 11 15 1013.1 0 14.4 21.3 29.2 76.2 65.0 221.9
31/08 16:00 18.3 39 6.1 4.3 15 20 1013.1 0 14.1 21.0 28.6 74.6 63.2 215.7
31/08 15:30 18.7 37 5.92 3.9 15 19 1013.1 0 13.7 20.6 27.9 72.6 60.9 207.6
31/08 15:00 19.2 35 5.77 3.5 13 19 1013.1 0 13.4 20.3 27.2 70.9 58.9 200.5

Last Refresh: 02-Sep-2026 19:15:30

Bureau of Meteorology